createdAt,value
2023-04-25T00:01:10.028Z,99238.63
2023-04-25T00:03:39.278Z,99238.90
2023-04-25T00:06:08.026Z,99237.98
2023-04-25T00:08:36.757Z,99240.17
2023-04-25T00:11:05.620Z,99241.82
2023-04-25T00:13:34.581Z,99238.99
2023-04-25T00:16:03.424Z,99237.30
2023-04-25T00:18:34.321Z,99240.52
2023-04-25T00:21:03.576Z,99244.41
2023-04-25T00:23:32.011Z,99247.41
2023-04-25T00:26:00.321Z,99249.17
2023-04-25T00:28:28.742Z,99251.16
2023-04-25T00:30:57.288Z,99247.56
2023-04-25T00:33:25.749Z,99247.86
2023-04-25T00:35:54.315Z,99248.75
2023-04-25T00:38:22.991Z,99243.35
2023-04-25T00:40:51.399Z,99243.45
2023-04-25T00:43:19.859Z,99245.71
2023-04-25T00:45:52.221Z,99247.92
2023-04-25T00:48:23.264Z,99245.38
2023-04-25T00:50:59.866Z,99244.59
2023-04-25T00:53:30.049Z,99247.72
2023-04-25T00:55:58.712Z,99250.11
2023-04-25T00:58:27.145Z,99249.39
2023-04-25T01:00:57.098Z,99249.30
2023-04-25T01:03:25.661Z,99249.83
2023-04-25T01:05:54.502Z,99256.21
2023-04-25T01:08:26.677Z,99257.94
2023-04-25T01:10:55.235Z,99258.95
2023-04-25T01:13:23.664Z,99265.44
2023-04-25T01:15:52.046Z,99264.31
2023-04-25T01:18:21.587Z,99270.04
2023-04-25T01:20:52.925Z,99272.54
2023-04-25T01:23:23.180Z,99273.14
2023-04-25T01:25:52.244Z,99278.80
2023-04-25T01:28:21.149Z,99277.30
2023-04-25T01:30:50.103Z,99281.90
2023-04-25T01:33:20.228Z,99280.89
2023-04-25T01:35:48.880Z,99277.77
2023-04-25T01:38:17.372Z,99278.15
2023-04-25T01:40:48.379Z,99276.76
2023-04-25T01:43:16.890Z,99278.45
2023-04-25T01:45:45.345Z,99279.52
2023-04-25T01:48:15.667Z,99277.83
2023-04-25T01:50:45.360Z,99277.36
2023-04-25T01:53:15.774Z,99276.14
2023-04-25T01:55:44.367Z,99278.39
2023-04-25T01:58:14.025Z,99282.89
2023-04-25T02:00:42.529Z,99286.07
2023-04-25T02:03:11.090Z,99290.05
2023-04-25T02:05:41.345Z,99287.22
2023-04-25T02:08:10.310Z,99285.79
2023-04-25T02:10:38.839Z,99287.61
2023-04-25T02:13:07.304Z,99284.27
2023-04-25T02:15:35.880Z,99282.46
2023-04-25T02:18:04.402Z,99282.25
2023-04-25T02:20:33.784Z,99280.17
2023-04-25T02:23:02.149Z,99281.02
2023-04-25T02:25:30.596Z,99282.71
2023-04-25T02:27:58.974Z,99283.46
2023-04-25T02:30:27.537Z,99281.41
2023-04-25T02:32:56.382Z,99279.50
2023-04-25T02:35:24.737Z,99286.27
2023-04-25T02:37:53.584Z,99288.45
2023-04-25T02:40:21.967Z,99288.91
2023-04-25T02:42:50.400Z,99285.46
2023-04-25T02:45:18.763Z,99287.02
2023-04-25T02:47:47.225Z,99289.16
2023-04-25T02:50:15.550Z,99287.63
2023-04-25T02:52:43.896Z,99291.13
2023-04-25T02:55:13.292Z,99294.78
2023-04-25T02:57:41.712Z,99296.88
2023-04-25T03:00:12.710Z,99293.76
2023-04-25T03:02:41.649Z,99292.04
2023-04-25T03:05:10.158Z,99289.25
2023-04-25T03:07:40.437Z,99286.10
2023-04-25T03:10:08.987Z,99283.17
2023-04-25T03:12:37.874Z,99280.60
2023-04-25T03:15:06.961Z,99283.46
2023-04-25T03:17:36.170Z,99284.16
2023-04-25T03:20:06.424Z,99283.32
2023-04-25T03:22:35.074Z,99283.70
2023-04-25T03:25:03.789Z,99285.19
2023-04-25T03:27:32.159Z,99287.45
2023-04-25T03:30:00.578Z,99286.14
2023-04-25T03:32:29.079Z,99284.77
2023-04-25T03:34:57.460Z,99289.62
2023-04-25T03:37:26.006Z,99290.08
2023-04-25T03:39:54.328Z,99293.31
2023-04-25T03:42:25.746Z,99294.32
2023-04-25T03:44:55.097Z,99296.91
2023-04-25T03:47:24.859Z,99294.42
2023-04-25T03:49:53.450Z,99289.16
2023-04-25T03:52:21.751Z,99294.85
2023-04-25T03:54:50.040Z,99295.92
2023-04-25T03:57:18.401Z,99296.95
2023-04-25T03:59:46.807Z,99301.08
2023-04-25T04:02:15.491Z,99302.59
2023-04-25T04:04:45.552Z,99304.30
2023-04-25T04:07:14.190Z,99306.02
2023-04-25T04:09:42.576Z,99305.94
2023-04-25T04:12:11.295Z,99307.09
2023-04-25T04:14:39.655Z,99306.64
2023-04-25T04:17:08.173Z,99307.56
2023-04-25T04:19:37.339Z,99310.39
2023-04-25T04:22:05.781Z,99307.85
2023-04-25T04:24:34.219Z,99307.17
2023-04-25T04:27:02.595Z,99307.52
2023-04-25T04:29:31.158Z,99309.63
2023-04-25T04:31:59.565Z,99314.53
2023-04-25T04:34:28.266Z,99319.55
2023-04-25T04:36:57.142Z,99320.73
2023-04-25T04:39:26.173Z,99323.16
2023-04-25T04:42:04.623Z,99321.52
2023-04-25T04:44:36.535Z,99323.48
2023-04-25T04:47:09.967Z,99330.02
2023-04-25T04:49:38.298Z,99326.03
2023-04-25T04:52:12.589Z,99324.20
2023-04-25T04:54:47.641Z,99321.52
2023-04-25T04:57:33.995Z,99324.94
2023-04-25T05:00:29.523Z,99322.56
2023-04-25T05:03:03.200Z,99324.12
2023-04-25T05:05:48.571Z,99324.74
2023-04-25T05:08:17.419Z,99321.16
2023-04-25T05:10:51.623Z,99320.85
2023-04-25T05:13:42.029Z,99315.50
2023-04-25T05:16:22.824Z,99314.50
2023-04-25T05:19:32.779Z,99317.57
2023-04-25T05:22:21.585Z,99318.95
2023-04-25T05:24:55.911Z,99319.84
2023-04-25T05:27:25.815Z,99314.50
2023-04-25T05:30:20.735Z,99316.20
2023-04-25T05:33:14.869Z,99317.77
2023-04-25T05:35:58.603Z,99319.10
2023-04-25T05:38:37.175Z,99324.11
2023-04-25T05:41:09.379Z,99322.71
2023-04-25T05:43:38.525Z,99321.95
2023-04-25T05:46:20.005Z,99321.75
2023-04-25T05:49:00.398Z,99320.16
2023-04-25T05:51:41.861Z,99320.06
2023-04-25T05:54:14.506Z,99323.08
2023-04-25T05:56:45.880Z,99319.83
2023-04-25T05:59:17.304Z,99324.30
2023-04-25T06:01:47.733Z,99319.78
2023-04-25T06:04:16.507Z,99319.15
2023-04-25T06:06:47.023Z,99321.52
2023-04-25T06:09:16.245Z,99319.83
2023-04-25T06:11:44.736Z,99322.10
2023-04-25T06:14:13.320Z,99321.70
2023-04-25T06:16:41.719Z,99319.78
2023-04-25T06:19:10.479Z,99324.83
2023-04-25T06:21:40.905Z,99318.05
2023-04-25T06:24:09.236Z,99315.52
2023-04-25T06:26:37.653Z,99316.48
2023-04-25T06:29:06.113Z,99316.89
2023-04-25T06:31:35.027Z,99313.14
2023-04-25T06:34:03.496Z,99312.98
2023-04-25T06:36:31.973Z,99312.88
2023-04-25T06:39:00.322Z,99308.95
2023-04-25T06:41:28.734Z,99311.75
2023-04-25T06:43:57.313Z,99308.74
2023-04-25T06:46:26.415Z,99312.67
2023-04-25T06:49:11.589Z,99309.68
2023-04-25T06:51:46.723Z,99307.65
2023-04-25T06:54:18.736Z,99309.77
2023-04-25T06:57:31.668Z,99307.75
2023-04-25T07:00:10.655Z,99307.09
2023-04-25T07:02:41.569Z,99305.55
2023-04-25T07:05:10.483Z,99304.13
2023-04-25T07:07:40.989Z,99303.52
2023-04-25T07:10:11.853Z,99297.52
2023-04-25T07:12:40.420Z,99294.60
2023-04-25T07:15:15.142Z,99300.45
2023-04-25T07:17:44.054Z,99302.22
2023-04-25T07:20:17.204Z,99300.33
2023-04-25T07:22:47.302Z,99298.69
2023-04-25T07:25:15.837Z,99303.03
2023-04-25T07:27:45.604Z,99306.84
2023-04-25T07:30:15.603Z,99305.77
2023-04-25T07:32:45.136Z,99301.42
2023-04-25T07:35:14.106Z,99306.48
2023-04-25T07:37:42.556Z,99305.84
2023-04-25T07:40:11.561Z,99304.72
2023-04-25T07:42:40.707Z,99307.26
2023-04-25T07:45:10.504Z,99303.80
2023-04-25T07:47:39.625Z,99299.65
2023-04-25T07:50:08.933Z,99305.05
2023-04-25T07:52:37.360Z,99305.48
2023-04-25T07:55:06.286Z,99305.27
2023-04-25T07:57:34.584Z,99302.97
2023-04-25T08:00:03.311Z,99305.00
2023-04-25T08:02:31.886Z,99305.99
2023-04-25T08:05:00.721Z,99302.93
2023-04-25T08:07:29.392Z,99309.48
2023-04-25T08:09:58.227Z,99313.62
2023-04-25T08:12:27.948Z,99305.98
2023-04-25T08:14:56.896Z,99303.24
2023-04-25T08:17:25.439Z,99297.27
2023-04-25T08:19:53.911Z,99304.36
2023-04-25T08:22:25.100Z,99308.03
2023-04-25T08:24:53.811Z,99305.07
2023-04-25T08:27:24.736Z,99317.36
2023-04-25T08:29:53.449Z,99325.33
2023-04-25T08:32:23.807Z,99314.86
2023-04-25T08:34:55.042Z,99321.70
2023-04-25T08:37:23.488Z,99316.05
2023-04-25T08:39:53.434Z,99316.67
2023-04-25T08:42:23.268Z,99311.73
2023-04-25T08:44:55.019Z,99320.04
2023-04-25T08:47:26.120Z,99319.60
2023-04-25T08:49:56.174Z,99321.88
2023-04-25T08:52:28.440Z,99319.97
2023-04-25T08:54:58.349Z,99322.71
2023-04-25T08:57:27.846Z,99324.32
2023-04-25T08:59:57.979Z,99319.11
2023-04-25T09:02:26.685Z,99320.52
2023-04-25T09:04:56.491Z,99320.60
2023-04-25T09:07:26.684Z,99325.18
2023-04-25T09:09:55.874Z,99323.59
2023-04-25T09:12:24.340Z,99328.36
2023-04-25T09:15:06.665Z,99326.25
2023-04-25T09:17:35.191Z,99325.70
2023-04-25T09:20:11.967Z,99326.48
2023-04-25T09:22:40.713Z,99323.06
2023-04-25T09:25:15.629Z,99319.96
2023-04-25T09:27:55.368Z,99318.05
2023-04-25T09:30:32.727Z,99317.55
2023-04-25T09:33:10.168Z,99320.04
2023-04-25T09:35:42.219Z,99319.95
2023-04-25T09:38:13.427Z,99317.77
2023-04-25T09:40:47.362Z,99316.55
2023-04-25T09:43:24.419Z,99319.92
2023-04-25T09:45:59.222Z,99321.83
2023-04-25T09:48:29.827Z,99319.20
2023-04-25T09:51:08.738Z,99323.75
2023-04-25T09:53:41.124Z,99321.48
2023-04-25T09:56:12.451Z,99321.80
2023-04-25T09:58:42.185Z,99322.54
2023-04-25T10:01:12.000Z,99323.48
2023-04-25T10:03:41.887Z,99329.45
2023-04-25T10:06:20.712Z,99325.93
2023-04-25T10:08:52.390Z,99323.27
2023-04-25T10:11:24.123Z,99324.85
2023-04-25T10:13:53.655Z,99331.90
2023-04-25T10:16:22.716Z,99327.16
2023-04-25T10:18:51.733Z,99326.80
2023-04-25T10:21:22.695Z,99324.75
2023-04-25T10:23:52.263Z,99324.73
2023-04-25T10:26:21.445Z,99325.54
2023-04-25T10:29:04.182Z,99322.76
2023-04-25T10:31:33.332Z,99326.33
2023-04-25T10:34:02.754Z,99328.77
2023-04-25T10:36:42.072Z,99325.73
2023-04-25T10:39:10.821Z,99322.33
2023-04-25T10:42:03.381Z,99322.16
2023-04-25T10:44:32.815Z,99324.46
2023-04-25T10:47:04.418Z,99317.33
2023-04-25T10:49:35.067Z,99317.08
2023-04-25T10:52:15.279Z,99315.02
2023-04-25T10:54:49.241Z,99315.05
2023-04-25T10:57:42.069Z,99312.98
2023-04-25T11:00:20.575Z,99307.36
2023-04-25T11:03:02.008Z,99313.09
2023-04-25T11:05:57.845Z,99316.95
2023-04-25T11:08:49.955Z,99316.54
2023-04-25T11:11:19.807Z,99311.90
2023-04-25T11:13:51.367Z,99311.06
2023-04-25T11:19:08.182Z,99309.91
2023-04-25T11:21:36.820Z,99309.09
2023-04-25T11:24:05.614Z,99310.30
2023-04-25T11:26:34.295Z,99314.84
2023-04-25T11:29:02.789Z,99316.52
2023-04-25T11:31:31.265Z,99313.60
2023-04-25T11:34:00.622Z,99315.20
2023-04-25T11:36:30.029Z,99311.29
2023-04-25T11:38:58.784Z,99315.34
2023-04-25T11:41:29.146Z,99320.30
2023-04-25T11:43:57.776Z,99322.70
2023-04-25T11:46:26.944Z,99317.48
2023-04-25T11:48:57.011Z,99325.20
2023-04-25T11:51:25.283Z,99322.88
2023-04-25T11:53:53.607Z,99319.83
2023-04-25T11:56:23.618Z,99323.94
2023-04-25T11:59:01.942Z,99318.20
2023-04-25T12:01:36.467Z,99313.05
2023-04-25T12:04:21.389Z,99313.30
2023-04-25T12:06:53.777Z,99317.36
2023-04-25T12:09:33.288Z,99314.76
2023-04-25T12:12:06.990Z,99314.87
2023-04-25T12:14:37.028Z,99316.59
2023-04-25T12:17:09.127Z,99316.23
2023-04-25T12:19:42.388Z,99317.61
2023-04-25T12:22:22.706Z,99323.84
2023-04-25T12:24:54.169Z,99323.13
2023-04-25T12:27:35.955Z,99327.18
2023-04-25T12:30:06.047Z,99325.44
2023-04-25T12:32:34.475Z,99329.08
2023-04-25T12:35:02.817Z,99328.65
2023-04-25T12:37:31.913Z,99328.45
2023-04-25T12:40:00.328Z,99334.52
2023-04-25T12:42:28.859Z,99327.09
2023-04-25T12:44:57.153Z,99329.62
2023-04-25T12:47:26.222Z,99328.16
2023-04-25T12:49:54.604Z,99331.95
2023-04-25T12:52:23.059Z,99327.86
2023-04-25T12:55:00.975Z,99330.48
2023-04-25T12:57:30.489Z,99332.05
2023-04-25T12:59:59.275Z,99327.09
2023-04-25T13:02:27.940Z,99324.75
2023-04-25T13:04:57.036Z,99317.21
2023-04-25T13:07:26.199Z,99316.44
2023-04-25T13:09:54.989Z,99315.80
2023-04-25T13:12:25.012Z,99319.88
2023-04-25T13:14:57.034Z,99324.25
2023-04-25T13:17:28.837Z,99323.87
2023-04-25T13:19:57.347Z,99325.44
2023-04-25T13:22:30.231Z,99329.61
2023-04-25T13:25:03.504Z,99329.13
2023-04-25T13:27:39.317Z,99329.90
2023-04-25T13:30:17.573Z,99330.09
2023-04-25T13:32:48.639Z,99324.73
2023-04-25T13:35:21.102Z,99319.98
2023-04-25T13:37:49.810Z,99319.83
2023-04-25T13:40:18.411Z,99327.49
2023-04-25T13:42:48.967Z,99318.98
2023-04-25T13:45:18.061Z,99324.81
2023-04-25T13:47:46.946Z,99321.75
2023-04-25T13:50:17.344Z,99321.02
2023-04-25T13:52:47.157Z,99323.71
2023-04-25T13:55:16.482Z,99321.31
2023-04-25T13:57:45.624Z,99324.04
2023-04-25T14:00:17.543Z,99320.61
2023-04-25T14:02:51.207Z,99324.27
2023-04-25T14:05:29.130Z,99331.73
2023-04-25T14:08:24.856Z,99336.96
2023-04-25T14:10:54.740Z,99340.91
2023-04-25T14:13:27.152Z,99344.19
2023-04-25T14:15:55.891Z,99342.07
2023-04-25T14:18:24.888Z,99347.48
2023-04-25T14:20:53.995Z,99350.78
2023-04-25T14:23:22.472Z,99346.77
2023-04-25T14:25:51.490Z,99349.91
2023-04-25T14:28:20.940Z,99347.92
2023-04-25T14:30:49.554Z,99348.18
2023-04-25T14:33:19.050Z,99349.46
2023-04-25T14:35:48.165Z,99347.47
2023-04-25T14:38:18.857Z,99351.69
2023-04-25T14:40:52.028Z,99343.32
2023-04-25T14:43:21.457Z,99351.17
2023-04-25T14:45:52.326Z,99350.91
2023-04-25T14:48:21.022Z,99358.98
2023-04-25T14:50:49.778Z,99359.46
2023-04-25T14:53:18.188Z,99361.28
2023-04-25T14:55:46.572Z,99363.42
2023-04-25T14:58:15.404Z,99358.83
2023-04-25T15:00:45.366Z,99364.61
2023-04-25T15:03:15.225Z,99370.64
2023-04-25T15:05:45.815Z,99373.61
2023-04-25T15:08:14.546Z,99383.12
2023-04-25T15:10:43.085Z,99379.27
2023-04-25T15:13:11.661Z,99387.16
2023-04-25T15:15:40.099Z,99390.32
2023-04-25T15:18:08.918Z,99388.80
2023-04-25T15:20:41.302Z,99397.81
2023-04-25T15:23:12.218Z,99403.71
2023-04-25T15:25:40.579Z,99404.58
2023-04-25T15:28:09.916Z,99408.33
2023-04-25T15:30:39.289Z,99407.69
2023-04-25T15:33:07.931Z,99412.23
2023-04-25T15:35:36.692Z,99412.91
2023-04-25T15:38:06.700Z,99414.73
2023-04-25T15:40:36.127Z,99416.02
2023-04-25T15:43:05.125Z,99422.41
2023-04-25T15:45:33.863Z,99424.77
2023-04-25T15:48:04.110Z,99427.52
2023-04-25T15:50:34.786Z,99425.70
2023-04-25T15:53:06.588Z,99430.85
2023-04-25T15:55:40.240Z,99430.52
2023-04-25T15:58:11.402Z,99430.28
2023-04-25T16:00:42.336Z,99430.78
2023-04-25T16:03:10.976Z,99432.95
2023-04-25T16:05:42.040Z,99433.98
2023-04-25T16:08:10.875Z,99433.70
2023-04-25T16:10:39.284Z,99437.75
2023-04-25T16:13:07.868Z,99438.81
2023-04-25T16:15:36.328Z,99447.63
2023-04-25T16:18:04.946Z,99456.81
2023-04-25T16:20:34.306Z,99455.52
2023-04-25T16:23:02.653Z,99453.70
2023-04-25T16:25:31.033Z,99452.59
2023-04-25T16:27:59.482Z,99457.94
2023-04-25T16:30:27.959Z,99460.37
2023-04-25T16:32:57.645Z,99463.83
2023-04-25T16:35:26.285Z,99463.31
2023-04-25T16:37:54.831Z,99466.23
2023-04-25T16:40:23.321Z,99467.92
2023-04-25T16:42:51.903Z,99466.60
2023-04-25T16:45:21.564Z,99470.66
2023-04-25T16:47:50.027Z,99470.92
2023-04-25T16:50:19.530Z,99472.95
2023-04-25T16:52:47.828Z,99475.55
2023-04-25T16:55:16.189Z,99482.43
2023-04-25T16:57:44.494Z,99486.88
2023-04-25T17:00:14.138Z,99492.31
2023-04-25T17:02:43.273Z,99496.50
2023-04-25T17:05:11.954Z,99506.05
2023-04-25T17:07:40.445Z,99510.41
2023-04-25T17:10:09.694Z,99513.42
2023-04-25T17:12:37.998Z,99515.30
2023-04-25T17:15:07.510Z,99520.54
2023-04-25T17:17:35.893Z,99526.41
2023-04-25T17:20:08.500Z,99527.79
2023-04-25T17:22:37.454Z,99527.84
2023-04-25T17:25:08.106Z,99538.38
2023-04-25T17:27:36.717Z,99541.20
2023-04-25T17:30:07.174Z,99545.33
2023-04-25T17:32:35.662Z,99557.09
2023-04-25T17:35:05.840Z,99550.83
2023-04-25T17:37:34.479Z,99554.09
2023-04-25T17:40:04.938Z,99559.29
2023-04-25T17:42:33.764Z,99565.56
2023-04-25T17:45:02.270Z,99568.94
2023-04-25T17:47:30.644Z,99576.67
2023-04-25T17:49:59.024Z,99577.30
2023-04-25T17:52:28.067Z,99581.88
2023-04-25T17:54:56.530Z,99582.13
2023-04-25T17:57:25.386Z,99588.30
2023-04-25T17:59:56.505Z,99591.09
2023-04-25T18:02:25.329Z,99596.94
2023-04-25T18:04:54.122Z,99594.25
2023-04-25T18:07:22.565Z,99598.17
2023-04-25T18:09:50.936Z,99602.80
2023-04-25T18:12:20.801Z,99607.01
2023-04-25T18:14:49.149Z,99608.75
2023-04-25T18:17:17.610Z,99611.19
2023-04-25T18:19:46.394Z,99615.12
2023-04-25T18:22:15.219Z,99615.69
2023-04-25T18:24:46.935Z,99621.33
2023-04-25T18:27:15.441Z,99623.64
2023-04-25T18:29:45.502Z,99629.95
2023-04-25T18:32:14.281Z,99634.11
2023-04-25T18:34:44.891Z,99638.45
2023-04-25T18:37:14.357Z,99639.53
2023-04-25T18:39:42.885Z,99640.84
2023-04-25T18:42:11.351Z,99640.53
2023-04-25T18:44:40.449Z,99642.36
2023-04-25T18:47:18.757Z,99647.62
2023-04-25T18:49:47.941Z,99649.98
2023-04-25T18:52:16.755Z,99653.11
2023-04-25T18:54:45.810Z,99656.29
2023-04-25T18:57:16.053Z,99659.95
2023-04-25T18:59:46.276Z,99665.16
2023-04-25T19:02:16.574Z,99663.52
2023-04-25T19:04:45.328Z,99660.75
2023-04-25T19:07:15.025Z,99664.35
2023-04-25T19:09:43.405Z,99662.45
2023-04-25T19:12:11.747Z,99663.70
2023-04-25T19:14:40.537Z,99659.21
2023-04-25T19:17:08.937Z,99662.29
2023-04-25T19:19:38.280Z,99664.49
2023-04-25T19:22:07.514Z,99662.70
2023-04-25T19:24:35.839Z,99662.01
2023-04-25T19:27:04.164Z,99663.04
2023-04-25T19:29:34.004Z,99668.57
2023-04-25T19:32:03.463Z,99668.02
2023-04-25T19:34:31.927Z,99667.76
2023-04-25T19:37:00.792Z,99668.62
2023-04-25T19:39:29.278Z,99669.53
2023-04-25T19:41:57.745Z,99670.81
2023-04-25T19:44:26.796Z,99672.63
2023-04-25T19:46:55.058Z,99675.83
2023-04-25T19:49:23.309Z,99681.52
2023-04-25T19:51:51.858Z,99684.15
2023-04-25T19:54:21.632Z,99687.49
2023-04-25T19:56:51.698Z,99691.70
2023-04-25T19:59:20.297Z,99691.21
2023-04-25T20:01:49.383Z,99689.76
2023-04-25T20:04:18.487Z,99698.65
2023-04-25T20:06:46.900Z,99700.77
2023-04-25T20:09:16.386Z,99704.63
2023-04-25T20:11:44.889Z,99712.45
2023-04-25T20:14:13.805Z,99711.59
2023-04-25T20:16:42.355Z,99716.88
2023-04-25T20:19:10.695Z,99721.33
2023-04-25T20:21:39.483Z,99721.81
2023-04-25T20:24:08.610Z,99725.63
2023-04-25T20:26:37.012Z,99726.83
2023-04-25T20:29:06.506Z,99726.80
2023-04-25T20:31:36.899Z,99724.73
2023-04-25T20:34:05.470Z,99725.43
2023-04-25T20:36:33.826Z,99726.29
2023-04-25T20:39:02.489Z,99725.33
2023-04-25T20:41:31.449Z,99726.96
2023-04-25T20:44:01.064Z,99726.92
2023-04-25T20:46:30.767Z,99727.30
2023-04-25T20:49:00.097Z,99731.73
2023-04-25T20:51:30.305Z,99730.86
2023-04-25T20:53:59.355Z,99731.58
2023-04-25T20:56:27.695Z,99731.16
2023-04-25T20:58:58.162Z,99736.31
2023-04-25T21:01:26.736Z,99732.50
2023-04-25T21:03:55.335Z,99737.52
2023-04-25T21:06:24.173Z,99742.39
2023-04-25T21:08:53.092Z,99745.39
2023-04-25T21:11:23.419Z,99742.55
2023-04-25T21:13:52.370Z,99744.33
2023-04-25T21:16:21.262Z,99748.40
2023-04-25T21:18:49.861Z,99753.52
2023-04-25T21:21:18.393Z,99753.73
2023-04-25T21:23:46.873Z,99754.02
2023-04-25T21:26:15.247Z,99763.23
2023-04-25T21:28:43.654Z,99763.84
2023-04-25T21:31:12.146Z,99765.48
2023-04-25T21:33:40.545Z,99769.58
2023-04-25T21:36:08.998Z,99769.63
2023-04-25T21:38:37.480Z,99765.03
2023-04-25T21:41:05.986Z,99763.14
2023-04-25T21:43:34.354Z,99768.32
2023-04-25T21:48:33.992Z,99771.66
2023-04-25T21:51:02.456Z,99772.75
2023-04-25T21:53:31.506Z,99778.35
2023-04-25T21:55:59.842Z,99784.77
2023-04-25T21:58:28.191Z,99783.73
2023-04-25T22:00:56.709Z,99784.09
2023-04-25T22:03:25.533Z,99786.16
2023-04-25T22:05:54.098Z,99787.64
2023-04-25T22:08:22.631Z,99789.89
2023-04-25T22:10:50.955Z,99795.52
2023-04-25T22:13:19.236Z,99796.60
2023-04-25T22:15:48.643Z,99796.46
2023-04-25T22:18:17.087Z,99796.35
2023-04-25T22:20:46.550Z,99795.52
2023-04-25T22:23:14.895Z,99802.20
2023-04-25T22:25:43.228Z,99799.50
2023-04-25T22:28:12.675Z,99804.14
2023-04-25T22:30:41.007Z,99804.86
2023-04-25T22:33:09.453Z,99809.77
2023-04-25T22:35:37.843Z,99813.31
2023-04-25T22:38:06.436Z,99814.63
2023-04-25T22:40:35.387Z,99818.58
2023-04-25T22:43:03.726Z,99817.33
2023-04-25T22:45:34.483Z,99817.23
2023-04-25T22:48:03.604Z,99819.20
2023-04-25T22:50:33.060Z,99819.77
2023-04-25T22:53:01.617Z,99817.64
2023-04-25T22:55:29.967Z,99818.13
2023-04-25T22:57:58.504Z,99816.48
2023-04-25T23:00:29.012Z,99814.33
2023-04-25T23:02:58.357Z,99814.39
2023-04-25T23:05:27.492Z,99810.34
2023-04-25T23:07:56.006Z,99810.38
2023-04-25T23:10:24.629Z,99815.30
2023-04-25T23:12:54.854Z,99818.27
2023-04-25T23:15:26.210Z,99821.19
2023-04-25T23:17:54.943Z,99824.33
2023-04-25T23:20:24.406Z,99827.80
2023-04-25T23:22:52.877Z,99825.27
2023-04-25T23:25:21.687Z,99827.02
2023-04-25T23:27:50.252Z,99825.30
2023-04-25T23:30:18.677Z,99819.69
2023-04-25T23:32:47.100Z,99819.56
2023-04-25T23:35:15.562Z,99820.96
2023-04-25T23:37:43.948Z,99820.65
2023-04-25T23:40:12.765Z,99822.42
2023-04-25T23:42:42.093Z,99826.26
2023-04-25T23:45:11.231Z,99830.23
2023-04-25T23:47:39.672Z,99826.49
2023-04-25T23:50:08.977Z,99825.63
2023-04-25T23:52:37.982Z,99824.92
2023-04-25T23:55:07.010Z,99823.53
2023-04-25T23:57:35.653Z,99829.21
